Time;durP1;ratioP1;P1;durP2;ratioP2;P2;SDS_P1;SDS_P2;PMS_P1;PMS_P2;Temp;Humidity;BMP_temperature;BMP_pressure;BME280_temperature;BME280_humidity;BME280_pressure;Samples;Min_cycle;Max_cycle;Signal;HPM_P1;HPM_P2
2022/06/16 00:00:04;;;;;;;;;;;26.20;83.80;26.20;99615.00;;;;344699;28;83549;-89
2022/06/16 00:00:17;;;;;;;;;;;26.20;83.80;26.30;99617.00;;;;342881;28;90655;-90
2022/06/16 00:00:30;;;;;;;;;;;26.10;83.70;26.20;99610.00;;;;345764;28;83503;-89
2022/06/16 00:00:42;;;;;;;;;;;26.20;83.90;26.20;99615.00;;;;346292;28;89810;-89
2022/06/16 00:00:54;;;;;;;;;;;26.20;83.70;26.30;99614.00;;;;344675;28;83467;-89
2022/06/16 00:01:06;;;;;;;;;;;26.20;83.70;26.30;99617.00;;;;345353;28;91938;-89
2022/06/16 00:01:18;;;;;;;;;;;26.20;83.60;26.20;99619.00;;;;346108;28;82537;-89
2022/06/16 00:01:30;;;;;;;;;;;26.20;83.70;26.20;99614.00;;;;344155;28;91480;-89
2022/06/16 00:01:42;;;;;;;;;;;26.20;84.00;26.20;99620.00;;;;344711;28;82473;-89
2022/06/16 00:01:54;;;;;;;;;;;26.20;84.10;26.10;99617.00;;;;342964;28;91381;-89
2022/06/16 00:02:06;;;;;;;;;;;26.20;84.10;26.10;99614.00;;;;344681;28;82525;-89
2022/06/16 00:02:18;;;;;;;;;;;26.10;83.70;26.20;99620.00;;;;344295;28;88717;-89
2022/06/16 00:02:30;;;;;;;;;;;26.20;83.80;26.10;99622.00;;;;343321;28;83321;-89
2022/06/16 00:02:43;;;;;;;;;;;26.20;84.10;26.10;99620.00;;;;345497;28;90793;-89
2022/06/16 00:02:55;;;;;;;;;;;26.10;83.90;26.10;99622.00;;;;348851;27;83440;-89
2022/06/16 00:03:07;;;;;;;;;;;26.10;84.10;26.10;99622.00;;;;345676;28;90703;-89
2022/06/16 00:03:19;;;;;;;;;;;26.10;83.90;26.10;99625.00;;;;344685;28;84018;-89
2022/06/16 00:03:31;;;;;;;;;;;26.10;84.00;26.00;99619.00;;;;342835;28;91595;-89
2022/06/16 00:03:43;;;;;;;;;;;26.10;84.00;26.00;99618.00;;;;342997;28;82567;-89
2022/06/16 00:03:55;;;;;;;;;;;26.10;84.80;26.00;99623.00;;;;344082;28;92481;-89
2022/06/16 00:04:07;;;;;;;;;;;26.10;84.40;25.90;99624.00;;;;344628;28;83444;-89
2022/06/16 00:04:18;;;;;;;;;;;26.10;84.50;26.00;99628.00;;;;341558;28;91311;-89
2022/06/16 00:04:30;;;;;;;;;;;26.10;84.50;26.00;99612.00;;;;346009;28;83342;-89
2022/06/16 00:04:46;;;;;;;;;;;26.10;84.10;26.00;99616.00;;;;344145;28;92141;-89
2022/06/16 00:04:58;;;;;;;;;;;26.10;83.90;26.00;99621.00;;;;344624;28;83575;-89
2022/06/16 00:05:12;;;;;;;;;;;26.10;84.10;26.00;99623.00;;;;346927;28;91891;-89
2022/06/16 00:05:26;;;;;;;;;;;26.10;83.80;26.00;99616.00;;;;345993;28;83510;-89
2022/06/16 00:05:40;;;;;;;;;;;26.10;83.80;26.00;99622.00;;;;345708;28;91132;-89
2022/06/16 00:05:52;;;;;;;;;;;26.10;84.30;26.00;99615.00;;;;343281;28;82631;-89
2022/06/16 00:06:04;;;;;;;;;;;26.10;84.40;26.00;99620.00;;;;344100;28;93170;-89
2022/06/16 00:06:15;;;;;;;;;;;26.10;84.50;26.00;99614.00;;;;344643;28;83440;-89
2022/06/16 00:06:27;;;;;;;;;;;26.10;84.50;26.00;99620.00;;;;344292;28;88965;-89
2022/06/16 00:06:39;;;;;;;;;;;26.10;84.30;26.00;99623.00;;;;347387;27;83556;-89
2022/06/16 00:06:51;;;;;;;;;;;26.00;84.70;26.00;99622.00;;;;346711;28;90361;-89
2022/06/16 00:07:03;;;;;;;;;;;26.10;84.40;26.10;99617.00;;;;343878;28;83643;-89
2022/06/16 00:07:15;;;;;;;;;;;26.00;84.20;26.00;99624.00;;;;342855;28;91128;-89
2022/06/16 00:07:27;;;;;;;;;;;26.00;84.30;26.00;99614.00;;;;345840;28;83440;-89
2022/06/16 00:07:40;;;;;;;;;;;26.00;84.50;26.00;99620.00;;;;344107;28;91555;-89
2022/06/16 00:07:52;;;;;;;;;;;26.00;84.40;26.00;99615.00;;;;344758;28;82589;-89
2022/06/16 00:08:05;;;;;;;;;;;26.00;84.50;25.90;99613.00;;;;341545;28;92960;-89
2022/06/16 00:08:18;;;;;;;;;;;26.00;84.60;25.90;99618.00;;;;343178;28;83879;-89
2022/06/16 00:08:30;;;;;;;;;;;26.00;84.60;26.00;99619.00;;;;344273;28;90346;-89
2022/06/16 00:08:42;;;;;;;;;;;26.00;84.50;25.90;99618.00;;;;343353;28;83380;-89
2022/06/16 00:08:53;;;;;;;;;;;26.00;84.50;25.90;99609.00;;;;344449;28;90339;-89
2022/06/16 00:09:05;;;;;;;;;;;26.00;84.50;25.90;99611.00;;;;344740;28;83411;-89
2022/06/16 00:09:17;;;;;;;;;;;26.00;84.60;25.90;99614.00;;;;344024;28;92484;-89
2022/06/16 00:09:29;;;;;;;;;;;26.00;84.60;25.90;99617.00;;;;341900;28;83248;-89
2022/06/16 00:09:41;;;;;;;;;;;26.00;84.60;25.90;99611.00;;;;344976;28;90425;-89
2022/06/16 00:09:53;;;;;;;;;;;26.00;84.50;25.90;99610.00;;;;345872;28;83306;-89
2022/06/16 00:10:05;;;;;;;;;;;26.00;84.50;25.90;99615.00;;;;344179;28;91563;-89
2022/06/16 00:10:17;;;;;;;;;;;26.00;84.70;25.90;99611.00;;;;344615;28;83546;-89
2022/06/16 00:10:29;;;;;;;;;;;25.90;84.70;25.90;99611.00;;;;340257;28;90953;-89
2022/06/16 00:11:17;;;;;;;;;;;25.90;84.50;25.90;99615.00;;;;345554;28;91836;-89
2022/06/16 00:11:29;;;;;;;;;;;25.90;85.00;25.90;99613.00;;;;344612;28;83458;-88
2022/06/16 00:11:41;;;;;;;;;;;25.90;84.50;25.90;99611.00;;;;342951;28;91369;-89
2022/06/16 00:11:54;;;;;;;;;;;25.90;84.60;25.90;99614.00;;;;342956;28;83538;-89
2022/06/16 00:12:06;;;;;;;;;;;25.90;84.50;25.90;99618.00;;;;341475;28;91716;-89
2022/06/16 00:12:18;;;;;;;;;;;25.90;84.50;25.90;99611.00;;;;341886;28;83510;-89
2022/06/16 00:12:30;;;;;;;;;;;25.90;84.50;25.90;99611.00;;;;341437;28;93072;-89
2022/06/16 00:12:42;;;;;;;;;;;25.90;84.30;25.90;99611.00;;;;344508;28;82563;-89
2022/06/16 00:12:54;;;;;;;;;;;25.90;84.20;25.90;99604.00;;;;345562;28;91853;-89
2022/06/16 00:13:06;;;;;;;;;;;25.90;84.70;25.90;99609.00;;;;344597;28;83647;-89
2022/06/16 00:13:17;;;;;;;;;;;25.90;84.60;25.90;99611.00;;;;345666;28;90895;-89
2022/06/16 00:13:31;;;;;;;;;;;25.90;84.40;26.00;99615.00;;;;347468;28;82512;-89
2022/06/16 00:13:43;;;;;;;;;;;25.90;84.50;26.00;99614.00;;;;342982;28;91333;-89
2022/06/16 00:13:55;;;;;;;;;;;25.90;84.40;26.00;99613.00;;;;347370;28;83286;-89
2022/06/16 00:14:07;;;;;;;;;;;25.90;84.70;26.10;99609.00;;;;345586;28;92232;-89
2022/06/16 00:14:19;;;;;;;;;;;25.90;84.80;26.00;99616.00;;;;341962;28;82405;-90
2022/06/16 00:14:30;;;;;;;;;;;25.90;84.80;25.90;99604.00;;;;345563;28;92650;-90
2022/06/16 00:14:42;;;;;;;;;;;25.90;85.10;25.90;99614.00;;;;343117;28;82514;-89
2022/06/16 00:14:54;;;;;;;;;;;25.90;84.90;25.90;99612.00;;;;342928;28;91493;-89
2022/06/16 00:15:07;;;;;;;;;;;25.90;84.80;25.90;99608.00;;;;346115;28;83438;-90
2022/06/16 00:15:22;;;;;;;;;;;25.90;85.10;25.90;99611.00;;;;344092;28;91916;-89
2022/06/16 00:15:34;;;;;;;;;;;25.90;85.20;25.90;99609.00;;;;345161;28;83627;-89
2022/06/16 00:15:45;;;;;;;;;;;25.90;85.20;25.80;99609.00;;;;343661;28;91383;-89
2022/06/16 00:15:58;;;;;;;;;;;25.90;85.10;25.90;99609.00;;;;344762;28;82440;-89
2022/06/16 00:16:10;;;;;;;;;;;25.80;84.70;25.80;99608.00;;;;344160;28;90753;-89
2022/06/16 00:16:22;;;;;;;;;;;25.90;85.20;25.70;99607.00;;;;346090;28;82605;-89
2022/06/16 00:16:34;;;;;;;;;;;25.80;85.30;25.80;99604.00;;;;345502;28;92959;-89
2022/06/16 00:16:46;;;;;;;;;;;25.90;85.00;25.80;99605.00;;;;346026;28;83500;-89
2022/06/16 00:16:58;;;;;;;;;;;25.80;85.00;25.70;99610.00;;;;347081;28;91952;-89
2022/06/16 00:17:10;;;;;;;;;;;25.80;85.40;25.70;99609.00;;;;344733;28;82494;-89
2022/06/16 00:17:22;;;;;;;;;;;25.80;85.30;25.70;99616.00;;;;345611;28;91773;-89
2022/06/16 00:17:38;;;;;;;;;;;25.80;85.20;25.80;99611.00;;;;346071;28;83453;-89
2022/06/16 00:17:50;;;;;;;;;;;25.80;84.90;25.70;99608.00;;;;347044;28;91677;-89
2022/06/16 00:18:02;;;;;;;;;;;25.80;85.30;25.70;99614.00;;;;341876;28;83470;-89
2022/06/16 00:18:14;;;;;;;;;;;25.80;85.70;25.70;99615.00;;;;344091;28;91768;-89
2022/06/16 00:18:26;;;;;;;;;;;25.80;85.60;25.80;99608.00;;;;348948;27;83370;-89
2022/06/16 00:18:38;;;;;;;;;;;25.80;85.20;25.70;99612.00;;;;342408;28;93105;-89
2022/06/16 00:18:50;;;;;;;;;;;25.80;85.40;25.80;99606.00;;;;343529;28;83623;-89
2022/06/16 00:19:02;;;;;;;;;;;25.80;85.40;25.90;99603.00;;;;345603;28;92041;-89
2022/06/16 00:19:14;;;;;;;;;;;25.80;85.20;25.90;99604.00;;;;344696;28;83479;-89
2022/06/16 00:19:25;;;;;;;;;;;25.80;85.20;25.80;99605.00;;;;345556;28;92168;-90
2022/06/16 00:19:37;;;;;;;;;;;25.80;85.30;25.70;99613.00;;;;344581;28;83529;-89
2022/06/16 00:19:49;;;;;;;;;;;25.80;85.60;25.70;99612.00;;;;342971;28;92193;-89
2022/06/16 00:20:04;;;;;;;;;;;25.70;85.40;25.70;99605.00;;;;344581;28;83826;-90
2022/06/16 00:20:16;;;;;;;;;;;25.70;85.30;25.70;99610.00;;;;344236;28;89960;-89
2022/06/16 00:20:28;;;;;;;;;;;25.80;85.00;25.80;99609.00;;;;346164;28;82557;-89
2022/06/16 00:20:40;;;;;;;;;;;25.80;85.00;25.80;99613.00;;;;346940;28;91811;-89
2022/06/16 00:20:52;;;;;;;;;;;25.70;85.00;25.70;99616.00;;;;347147;28;82712;-89
2022/06/16 00:21:04;;;;;;;;;;;25.80;85.60;25.80;99608.00;;;;345660;28;90821;-89
2022/06/16 00:21:16;;;;;;;;;;;25.80;85.50;25.90;99612.00;;;;343363;28;83352;-89
2022/06/16 00:21:28;;;;;;;;;;;25.80;85.10;25.90;99612.00;;;;342902;28;91032;-89
2022/06/16 00:21:40;;;;;;;;;;;25.80;85.30;25.80;99611.00;;;;343104;28;82789;-89
2022/06/16 00:21:52;;;;;;;;;;;25.80;85.60;25.80;99611.00;;;;344148;28;91664;-89
2022/06/16 00:22:04;;;;;;;;;;;25.80;85.40;25.80;99602.00;;;;346578;28;82609;-90
2022/06/16 00:22:16;;;;;;;;;;;25.80;85.10;25.80;99605.00;;;;344176;28;90634;-89
2022/06/16 00:22:27;;;;;;;;;;;25.80;85.50;25.80;99603.00;;;;342042;28;83506;-89
2022/06/16 00:22:39;;;;;;;;;;;25.80;85.30;25.80;99610.00;;;;344064;28;92948;-89
2022/06/16 00:22:51;;;;;;;;;;;25.80;85.20;25.80;99613.00;;;;346054;28;83525;-89
2022/06/16 00:23:03;;;;;;;;;;;25.70;85.40;25.90;99604.00;;;;344264;28;92343;-89
2022/06/16 00:23:15;;;;;;;;;;;25.80;85.20;25.90;99602.00;;;;347563;28;82527;-89
2022/06/16 00:23:26;;;;;;;;;;;25.80;85.40;25.90;99611.00;;;;346869;27;91404;-90
2022/06/16 00:23:39;;;;;;;;;;;25.80;85.20;25.90;99607.00;;;;346083;28;83419;-89
2022/06/16 00:23:50;;;;;;;;;;;25.80;85.00;25.80;99604.00;;;;345773;28;89439;-89
2022/06/16 00:24:02;;;;;;;;;;;25.80;85.20;25.90;99608.00;;;;346005;28;82596;-90
2022/06/16 00:24:14;;;;;;;;;;;25.80;85.20;25.90;99609.00;;;;345268;28;90645;-89
2022/06/16 00:24:29;;;;;;;;;;;25.80;85.20;25.90;99616.00;;;;347518;28;83366;-90
2022/06/16 00:24:41;;;;;;;;;;;25.80;85.20;25.80;99605.00;;;;346442;28;92051;-89
2022/06/16 00:24:53;;;;;;;;;;;25.80;85.50;25.80;99604.00;;;;346176;28;83349;-89
2022/06/16 00:25:05;;;;;;;;;;;25.80;85.50;25.80;99608.00;;;;345178;28;91130;-89
2022/06/16 00:25:17;;;;;;;;;;;25.80;85.40;25.80;99604.00;;;;346123;28;83414;-89
2022/06/16 00:25:29;;;;;;;;;;;25.80;85.10;25.70;99605.00;;;;345585;28;91472;-89
2022/06/16 00:25:41;;;;;;;;;;;25.70;85.30;25.80;99600.00;;;;347455;28;82539;-89
2022/06/16 00:25:53;;;;;;;;;;;25.80;85.50;25.70;99610.00;;;;347135;28;90421;-89
2022/06/16 00:26:13;;;;;;;;;;;25.70;85.30;25.70;99603.00;;;;347435;27;82639;-90
2022/06/16 00:26:26;;;;;;;;;;;25.70;85.40;25.70;99610.00;;;;345649;28;90676;-89
2022/06/16 00:26:38;;;;;;;;;;;25.70;85.50;25.70;99590.00;;;;346178;28;82314;-90
2022/06/16 00:26:49;;;;;;;;;;;25.70;85.40;25.70;99608.00;;;;345547;28;92165;-89
2022/06/16 00:27:01;;;;;;;;;;;25.70;85.70;25.60;99608.00;;;;350377;27;83381;-89
2022/06/16 00:27:13;;;;;;;;;;;25.70;85.80;25.60;99611.00;;;;348571;27;88263;-89
2022/06/16 00:27:25;;;;;;;;;;;25.70;85.90;25.60;99601.00;;;;347450;28;82501;-89
2022/06/16 00:27:37;;;;;;;;;;;25.70;85.70;25.70;99612.00;;;;343505;28;90934;-88
2022/06/16 00:27:49;;;;;;;;;;;25.70;85.40;25.60;99606.00;;;;345897;28;83500;-89
2022/06/16 00:28:01;;;;;;;;;;;25.70;85.50;25.70;99609.00;;;;347045;28;91620;-89
2022/06/16 00:28:12;;;;;;;;;;;25.70;85.30;25.70;99606.00;;;;347397;28;83515;-88
2022/06/16 00:28:24;;;;;;;;;;;25.70;85.00;25.70;99600.00;;;;347000;28;91451;-89
2022/06/16 00:28:36;;;;;;;;;;;25.70;84.90;25.70;99607.00;;;;348256;27;83552;-89
2022/06/16 00:28:48;;;;;;;;;;;25.70;84.90;25.70;99599.00;;;;346901;28;93120;-89
2022/06/16 00:28:59;;;;;;;;;;;25.70;85.00;25.60;99604.00;;;;346032;28;83453;-89
2022/06/16 00:29:13;;;;;;;;;;;25.70;85.60;25.70;99604.00;;;;345661;28;91649;-89
2022/06/16 00:29:25;;;;;;;;;;;25.70;85.60;25.70;99601.00;;;;346065;28;83253;-88
2022/06/16 00:29:36;;;;;;;;;;;25.70;85.20;25.80;99595.00;;;;345593;28;91344;-89
2022/06/16 00:29:48;;;;;;;;;;;25.70;85.30;25.70;99602.00;;;;350080;27;83186;-89
2022/06/16 00:30:00;;;;;;;;;;;25.70;85.40;25.70;99601.00;;;;345623;28;89143;-89
2022/06/16 00:30:12;;;;;;;;;;;25.70;85.40;25.60;99590.00;;;;346102;28;84550;-89
2022/06/16 00:30:24;;;;;;;;;;;25.70;85.90;25.70;99596.00;;;;343013;28;87975;-88
2022/06/16 00:30:36;;;;;;;;;;;25.70;85.80;25.70;99600.00;;;;345395;28;83359;-88
2022/06/16 00:30:47;;;;;;;;;;;25.70;85.60;25.60;99593.00;;;;346792;28;92350;-89
2022/06/16 00:31:03;;;;;;;;;;;25.70;86.30;25.50;99596.00;;;;348961;27;83372;-88
2022/06/16 00:31:17;;;;;;;;;;;25.70;85.80;25.60;99602.00;;;;348458;27;91099;-88
2022/06/16 00:31:29;;;;;;;;;;;25.70;85.80;25.60;99599.00;;;;347398;28;83534;-88
2022/06/16 00:31:40;;;;;;;;;;;25.60;85.80;25.60;99601.00;;;;346898;28;92317;-88
2022/06/16 00:31:52;;;;;;;;;;;25.60;85.90;25.70;99597.00;;;;347507;28;83173;-88
2022/06/16 00:32:05;;;;;;;;;;;25.60;86.20;25.70;99598.00;;;;345560;28;90656;-88
2022/06/16 00:32:17;;;;;;;;;;;25.60;85.50;25.70;99595.00;;;;347544;28;82458;-89
2022/06/16 00:32:29;;;;;;;;;;;25.60;85.30;25.60;99600.00;;;;344308;28;91519;-88
2022/06/16 00:32:41;;;;;;;;;;;25.60;85.60;25.60;99600.00;;;;348839;27;83319;-88
2022/06/16 00:32:53;;;;;;;;;;;25.60;85.40;25.70;99598.00;;;;347030;28;91101;-88
2022/06/16 00:33:05;;;;;;;;;;;25.60;85.40;25.70;99599.00;;;;346131;28;83398;-88
2022/06/16 00:33:17;;;;;;;;;;;25.60;85.50;25.60;99598.00;;;;346895;28;91455;-88
2022/06/16 00:33:29;;;;;;;;;;;25.60;85.60;25.60;99606.00;;;;346955;28;83415;-87
2022/06/16 00:33:41;;;;;;;;;;;25.60;85.60;25.50;99606.00;;;;345669;28;91616;-88
2022/06/16 00:33:53;;;;;;;;;;;25.60;85.70;25.50;99597.00;;;;346111;28;82572;-88
2022/06/16 00:34:04;;;;;;;;;;;25.60;86.00;25.40;99606.00;;;;345675;28;90235;-88
2022/06/16 00:34:16;;;;;;;;;;;25.60;86.00;25.60;99597.00;;;;344752;28;82433;-88
2022/06/16 00:34:28;;;;;;;;;;;25.60;85.60;25.60;99596.00;;;;344173;28;91501;-88
2022/06/16 00:34:40;;;;;;;;;;;25.60;86.00;25.60;99599.00;;;;347347;28;83589;-88
2022/06/16 00:34:51;;;;;;;;;;;25.60;85.30;25.60;99600.00;;;;346992;28;91519;-89
2022/06/16 00:35:04;;;;;;;;;;;25.60;85.40;25.50;99599.00;;;;347445;28;82500;-88
2022/06/16 00:35:15;;;;;;;;;;;25.60;85.40;25.50;99601.00;;;;348420;27;92027;-88
2022/06/16 00:35:27;;;;;;;;;;;25.60;85.80;25.50;99598.00;;;;345974;28;82549;-89
2022/06/16 00:35:39;;;;;;;;;;;25.60;85.70;25.60;99605.00;;;;345785;28;89184;-89
2022/06/16 00:35:51;;;;;;;;;;;25.60;85.50;25.60;99608.00;;;;347468;28;82465;-88
2022/06/16 00:36:03;;;;;;;;;;;25.60;85.40;25.60;99605.00;;;;346963;28;91670;-88
2022/06/16 00:36:15;;;;;;;;;;;25.60;85.40;25.60;99602.00;;;;344683;28;82517;-88
2022/06/16 00:36:26;;;;;;;;;;;25.60;85.50;25.60;99610.00;;;;347031;28;92271;-88
2022/06/16 00:36:38;;;;;;;;;;;25.60;85.40;25.60;99604.00;;;;346221;28;83403;-88
2022/06/16 00:36:50;;;;;;;;;;;25.60;85.70;25.50;99609.00;;;;348003;27;92194;-88
2022/06/16 00:37:02;;;;;;;;;;;25.60;85.80;25.60;99606.00;;;;345758;28;83373;-88
2022/06/16 00:37:14;;;;;;;;;;;25.60;86.10;25.60;99605.00;;;;344235;28;91315;-88
2022/06/16 00:37:26;;;;;;;;;;;25.60;86.00;25.60;99602.00;;;;347348;28;83417;-88
2022/06/16 00:37:38;;;;;;;;;;;25.60;86.00;25.50;99608.00;;;;346909;28;90433;-88
2022/06/16 00:37:49;;;;;;;;;;;25.60;86.00;25.50;99602.00;;;;348877;27;83357;-88
2022/06/16 00:38:01;;;;;;;;;;;25.60;85.80;25.50;99605.00;;;;347049;28;90205;-88
2022/06/16 00:38:13;;;;;;;;;;;25.50;85.60;25.60;99600.00;;;;347379;28;83585;-88
2022/06/16 00:38:25;;;;;;;;;;;25.50;85.40;25.60;99602.00;;;;345790;28;87644;-88
2022/06/16 00:38:37;;;;;;;;;;;25.50;85.60;25.60;99603.00;;;;346046;28;83450;-88
2022/06/16 00:38:49;;;;;;;;;;;25.60;85.90;25.60;99610.00;;;;346845;27;93312;-88
2022/06/16 00:39:00;;;;;;;;;;;25.50;85.80;25.60;99606.00;;;;348819;27;83457;-88
2022/06/16 00:39:12;;;;;;;;;;;25.50;85.50;25.60;99605.00;;;;347033;28;89045;-88
2022/06/16 00:39:24;;;;;;;;;;;25.50;85.80;25.50;99604.00;;;;347530;28;83365;-88
2022/06/16 00:39:35;;;;;;;;;;;25.50;85.90;25.60;99602.00;;;;347845;27;91264;-89
2022/06/16 00:39:47;;;;;;;;;;;25.50;85.70;25.50;99598.00;;;;350260;27;83382;-89
2022/06/16 00:39:59;;;;;;;;;;;25.50;85.60;25.50;99605.00;;;;345717;28;89275;-88
2022/06/16 00:40:11;;;;;;;;;;;25.50;85.60;25.50;99609.00;;;;346082;28;83383;-87
2022/06/16 00:40:23;;;;;;;;;;;25.50;86.30;25.50;99596.00;;;;345353;28;91509;-88
2022/06/16 00:40:35;;;;;;;;;;;25.50;86.40;25.60;99600.00;;;;348799;27;82372;-88
2022/06/16 00:40:47;;;;;;;;;;;25.50;85.80;25.50;99597.00;;;;345585;28;91392;-88
2022/06/16 00:40:59;;;;;;;;;;;25.50;86.00;25.60;99603.00;;;;348855;27;83278;-89
2022/06/16 00:41:10;;;;;;;;;;;25.50;85.80;25.60;99596.00;;;;347153;28;88683;-88
2022/06/16 00:41:22;;;;;;;;;;;25.50;85.60;25.50;99596.00;;;;347339;28;83458;-88
2022/06/16 00:41:34;;;;;;;;;;;25.50;85.70;25.40;99591.00;;;;347117;28;91303;-88
2022/06/16 00:41:46;;;;;;;;;;;25.50;85.90;25.40;99599.00;;;;346141;28;82498;-88
2022/06/16 00:42:20;;;;;;;;;;;25.50;86.10;25.30;99597.00;;;;348460;27;90147;-88
2022/06/16 00:42:31;;;;;;;;;;;25.50;86.10;25.40;99594.00;;;;346073;28;82956;-88
2022/06/16 00:42:44;;;;;;;;;;;25.50;86.10;25.40;99600.00;;;;346633;28;91654;-89
2022/06/16 00:42:56;;;;;;;;;;;25.50;85.90;25.50;99605.00;;;;347457;28;83366;-88
2022/06/16 00:43:09;;;;;;;;;;;25.50;85.90;25.60;99599.00;;;;348103;27;92450;-88
2022/06/16 00:43:20;;;;;;;;;;;25.50;85.90;25.60;99602.00;;;;347303;28;83368;-88
2022/06/16 00:43:32;;;;;;;;;;;25.50;86.00;25.50;99599.00;;;;347162;27;90511;-88
2022/06/16 00:43:44;;;;;;;;;;;25.50;86.20;25.50;99605.00;;;;347445;28;83580;-88
2022/06/16 00:44:06;;;;;;;;;;;25.50;86.30;25.40;99601.00;;;;345701;28;91360;-89
2022/06/16 00:44:20;;;;;;;;;;;25.50;86.10;25.40;99606.00;;;;345957;28;82536;-88
2022/06/16 00:44:32;;;;;;;;;;;25.50;85.90;25.40;99599.00;;;;345675;28;91820;-88
2022/06/16 00:44:45;;;;;;;;;;;25.50;86.50;25.30;99599.00;;;;347473;28;83444;-88
2022/06/16 00:44:57;;;;;;;;;;;25.40;86.40;25.30;99604.00;;;;345637;28;91356;-88
2022/06/16 00:45:43;;;;;;;;;;;25.40;86.50;25.30;99603.00;;;;344651;28;83369;-88
2022/06/16 00:46:02;;;;;;;;;;;25.40;86.60;25.50;99603.00;;;;345454;28;93332;-88
2022/06/16 00:46:20;;;;;;;;;;;25.40;86.00;25.40;99601.00;;;;347433;27;82553;-88
2022/06/16 00:46:32;;;;;;;;;;;25.40;86.30;25.30;99595.00;;;;344551;28;88666;-88
2022/06/16 00:46:44;;;;;;;;;;;25.40;86.70;25.40;99598.00;;;;345984;28;83605;-88
2022/06/16 00:46:56;;;;;;;;;;;25.40;86.30;25.40;99610.00;;;;345630;28;90199;-88
2022/06/16 00:47:09;;;;;;;;;;;25.40;86.10;25.40;99589.00;;;;347420;28;83464;-88
2022/06/16 00:47:23;;;;;;;;;;;25.40;86.10;25.40;99599.00;;;;346847;28;91337;-88
2022/06/16 00:47:35;;;;;;;;;;;25.40;86.20;25.50;99602.00;;;;347337;27;83429;-88
2022/06/16 00:47:47;;;;;;;;;;;25.40;86.00;25.50;99601.00;;;;344236;28;90374;-89
2022/06/16 00:47:59;;;;;;;;;;;25.40;86.20;25.50;99598.00;;;;346080;28;83461;-88
2022/06/16 00:48:13;;;;;;;;;;;25.40;86.10;25.50;99600.00;;;;346877;27;92535;-88
2022/06/16 00:48:29;;;;;;;;;;;25.40;86.20;25.40;99598.00;;;;344738;28;82500;-89
2022/06/16 00:48:55;;;;;;;;;;;25.40;86.00;25.50;99594.00;;;;348253;27;90521;-88
2022/06/16 00:49:07;;;;;;;;;;;25.40;85.90;25.50;99605.00;;;;349995;27;83437;-88
2022/06/16 00:49:19;;;;;;;;;;;25.40;86.00;25.50;99603.00;;;;345522;28;91907;-88
2022/06/16 00:49:31;;;;;;;;;;;25.40;86.40;25.50;99601.00;;;;347352;27;83546;-88
2022/06/16 00:49:43;;;;;;;;;;;25.40;85.80;25.50;99593.00;;;;347034;28;91913;-88
2022/06/16 00:49:56;;;;;;;;;;;25.40;85.70;25.40;99589.00;;;;346100;28;83351;-89
2022/06/16 00:50:08;;;;;;;;;;;25.40;86.10;25.40;99591.00;;;;346916;28;91558;-88
2022/06/16 00:50:20;;;;;;;;;;;25.40;86.10;25.40;99593.00;;;;346019;28;83498;-88
2022/06/16 00:50:32;;;;;;;;;;;25.40;85.80;25.40;99600.00;;;;345611;28;91613;-89
2022/06/16 00:50:44;;;;;;;;;;;25.40;85.70;25.40;99594.00;;;;347440;28;82609;-88
2022/06/16 00:51:06;;;;;;;;;;;25.40;86.00;25.40;99603.00;;;;345356;28;91250;-89
2022/06/16 00:51:27;;;;;;;;;;;25.40;85.90;25.40;99598.00;;;;348770;27;84095;-88
2022/06/16 00:51:51;;;;;;;;;;;25.40;86.30;25.50;99599.00;;;;349316;27;91655;-88
2022/06/16 00:52:08;;;;;;;;;;;25.40;86.10;25.50;99599.00;;;;346600;27;85482;-87
2022/06/16 00:52:25;;;;;;;;;;;25.40;85.90;25.50;99595.00;;;;345557;28;90966;-89
2022/06/16 00:52:37;;;;;;;;;;;25.40;85.90;25.50;99595.00;;;;345033;28;83440;-88
2022/06/16 00:52:48;;;;;;;;;;;25.40;86.00;25.40;99593.00;;;;344227;28;91772;-89
2022/06/16 00:53:01;;;;;;;;;;;25.40;85.90;25.30;99595.00;;;;346103;28;83301;-88
2022/06/16 00:53:13;;;;;;;;;;;25.40;86.20;25.30;99590.00;;;;345595;28;92842;-88
2022/06/16 00:53:24;;;;;;;;;;;25.40;86.30;25.20;99600.00;;;;347279;27;83557;-88
2022/06/16 00:53:37;;;;;;;;;;;25.40;86.40;25.20;99600.00;;;;345676;28;91044;-88
2022/06/16 00:53:49;;;;;;;;;;;25.40;86.40;25.20;99596.00;;;;344720;28;82532;-88
2022/06/16 00:54:25;;;;;;;;;;;25.40;86.60;25.10;99593.00;;;;348521;27;91632;-88
2022/06/16 00:54:42;;;;;;;;;;;25.40;86.60;25.20;99591.00;;;;348190;27;82599;-88
2022/06/16 00:55:12;;;;;;;;;;;25.30;86.30;25.30;99598.00;;;;348290;27;92275;-88
2022/06/16 00:55:26;;;;;;;;;;;25.30;86.20;25.30;99596.00;;;;348748;27;82554;-88
2022/06/16 00:55:37;;;;;;;;;;;25.30;85.90;25.30;99595.00;;;;346566;28;92362;-88
2022/06/16 00:55:50;;;;;;;;;;;25.40;85.90;25.30;99597.00;;;;348828;27;83265;-88
2022/06/16 00:56:02;;;;;;;;;;;25.30;85.90;25.30;99595.00;;;;348336;27;91912;-89
2022/06/16 00:56:16;;;;;;;;;;;25.30;85.90;25.40;99596.00;;;;346079;28;83393;-88
2022/06/16 00:56:29;;;;;;;;;;;25.30;85.80;25.30;99601.00;;;;345668;28;91654;-88
2022/06/16 00:56:40;;;;;;;;;;;25.30;86.10;25.30;99588.00;;;;344654;28;82505;-88
2022/06/16 00:56:53;;;;;;;;;;;25.30;86.30;25.30;99595.00;;;;345612;28;91267;-88
2022/06/16 00:57:07;;;;;;;;;;;25.30;86.30;25.30;99594.00;;;;344396;28;83537;-89
2022/06/16 00:57:23;;;;;;;;;;;25.30;86.10;25.30;99597.00;;;;346929;28;91381;-88
2022/06/16 00:57:37;;;;;;;;;;;25.30;85.80;25.30;99590.00;;;;346561;27;83608;-88
2022/06/16 00:57:49;;;;;;;;;;;25.30;85.90;25.40;99595.00;;;;346988;28;88745;-88
2022/06/16 00:58:00;;;;;;;;;;;25.30;85.80;25.30;99595.00;;;;348791;27;83283;-88
2022/06/16 00:58:12;;;;;;;;;;;25.30;85.90;25.30;99594.00;;;;346972;28;91877;-88
2022/06/16 00:58:25;;;;;;;;;;;25.30;85.90;25.40;99599.00;;;;347388;28;83489;-89
2022/06/16 00:58:40;;;;;;;;;;;25.30;86.00;25.50;99598.00;;;;346466;28;91651;-88
2022/06/16 00:58:53;;;;;;;;;;;25.30;86.10;25.40;99596.00;;;;346042;28;83317;-88
2022/06/16 00:59:05;;;;;;;;;;;25.30;86.40;25.40;99591.00;;;;348434;27;90876;-88
2022/06/16 00:59:18;;;;;;;;;;;25.30;86.30;25.30;99588.00;;;;346138;28;83417;-88
2022/06/16 00:59:30;;;;;;;;;;;25.30;86.50;25.20;99586.00;;;;345650;28;91957;-88
2022/06/16 00:59:43;;;;;;;;;;;25.30;86.60;25.30;99599.00;;;;350019;27;83314;-88
2022/06/16 00:59:55;;;;;;;;;;;25.30;86.40;25.30;99597.00;;;;347075;28;91202;-88
2022/06/16 01:00:13;;;;;;;;;;;25.30;86.20;25.40;99597.00;;;;345954;28;82427;-88
2022/06/16 01:00:35;;;;;;;;;;;25.30;86.10;25.30;99596.00;;;;346882;28;92159;-87
2022/06/16 01:00:47;;;;;;;;;;;25.30;86.60;25.20;99597.00;;;;347267;28;83462;-88
2022/06/16 01:00:59;;;;;;;;;;;25.30;86.60;25.20;99600.00;;;;345613;28;90325;-88
2022/06/16 01:01:11;;;;;;;;;;;25.30;86.50;25.20;99597.00;;;;346175;28;83292;-88
2022/06/16 01:01:23;;;;;;;;;;;25.30;86.30;25.30;99600.00;;;;345607;28;91116;-88
2022/06/16 01:01:35;;;;;;;;;;;25.30;86.20;25.30;99598.00;;;;348744;27;83567;-88
2022/06/16 01:01:47;;;;;;;;;;;25.30;86.10;25.30;99591.00;;;;346738;28;89080;-89
2022/06/16 01:01:59;;;;;;;;;;;25.30;86.20;25.30;99598.00;;;;349000;27;82403;-88
2022/06/16 01:02:11;;;;;;;;;;;25.30;86.30;25.30;99598.00;;;;348356;27;91487;-89
2022/06/16 01:02:24;;;;;;;;;;;25.30;86.30;25.30;99602.00;;;;347413;28;83480;-88
2022/06/16 01:02:36;;;;;;;;;;;25.30;86.50;25.20;99600.00;;;;347031;28;88945;-88
2022/06/16 01:02:48;;;;;;;;;;;25.30;86.70;25.30;99596.00;;;;347342;28;83437;-88
2022/06/16 01:03:00;;;;;;;;;;;25.30;87.10;25.20;99601.00;;;;345642;28;91353;-88
2022/06/16 01:03:12;;;;;;;;;;;25.30;86.50;25.20;99605.00;;;;347487;28;83300;-88
2022/06/16 01:04:54;;;;;;;;;;;25.20;87.40;25.10;99599.00;;;;347471;28;83480;-88
2022/06/16 01:05:06;;;;;;;;;;;25.20;86.50;25.10;99601.00;;;;346824;28;91970;-88
2022/06/16 01:05:18;;;;;;;;;;;25.20;87.10;25.10;99592.00;;;;344459;28;83411;-88
2022/06/16 01:05:30;;;;;;;;;;;25.20;87.10;25.00;99602.00;;;;343698;28;91630;-88
2022/06/16 01:05:42;;;;;;;;;;;25.20;86.90;25.00;99609.00;;;;344386;28;83300;-88